sensor_id;sensor_type;location;lat;lon;timestamp;P1;durP1;ratioP1;P2;durP2;ratioP2
10979;SDS011;5543;51.734;8.744;2023-04-24T00:00:27;0.10;;;0.10;;
10979;SDS011;5543;51.734;8.744;2023-04-24T00:02:57;0.13;;;0.13;;
10979;SDS011;5543;51.734;8.744;2023-04-24T00:05:26;0.20;;;0.20;;
10979;SDS011;5543;51.734;8.744;2023-04-24T00:07:54;0.10;;;0.10;;
10979;SDS011;5543;51.734;8.744;2023-04-24T00:10:22;0.10;;;0.10;;
10979;SDS011;5543;51.734;8.744;2023-04-24T00:12:50;0.10;;;0.10;;
10979;SDS011;5543;51.734;8.744;2023-04-24T00:15:18;0.43;;;0.30;;
10979;SDS011;5543;51.734;8.744;2023-04-24T00:17:46;0.22;;;0.22;;
10979;SDS011;5543;51.734;8.744;2023-04-24T00:20:15;0.10;;;0.10;;
10979;SDS011;5543;51.734;8.744;2023-04-24T00:22:45;0.45;;;0.32;;
10979;SDS011;5543;51.734;8.744;2023-04-24T00:25:13;0.10;;;0.10;;
10979;SDS011;5543;51.734;8.744;2023-04-24T00:27:41;0.10;;;0.10;;
10979;SDS011;5543;51.734;8.744;2023-04-24T00:30:09;0.10;;;0.10;;
10979;SDS011;5543;51.734;8.744;2023-04-24T00:32:38;0.15;;;0.15;;
10979;SDS011;5543;51.734;8.744;2023-04-24T00:35:06;0.10;;;0.10;;
10979;SDS011;5543;51.734;8.744;2023-04-24T00:37:36;0.10;;;0.10;;
10979;SDS011;5543;51.734;8.744;2023-04-24T00:40:04;0.17;;;0.17;;
10979;SDS011;5543;51.734;8.744;2023-04-24T00:42:33;0.10;;;0.10;;
10979;SDS011;5543;51.734;8.744;2023-04-24T00:45:02;0.20;;;0.20;;
10979;SDS011;5543;51.734;8.744;2023-04-24T00:47:31;0.10;;;0.10;;
10979;SDS011;5543;51.734;8.744;2023-04-24T00:50:01;0.20;;;0.20;;
10979;SDS011;5543;51.734;8.744;2023-04-24T00:52:30;0.20;;;0.20;;
10979;SDS011;5543;51.734;8.744;2023-04-24T00:54:59;0.10;;;0.10;;
10979;SDS011;5543;51.734;8.744;2023-04-24T00:57:27;0.20;;;0.20;;
10979;SDS011;5543;51.734;8.744;2023-04-24T00:59:56;0.10;;;0.10;;
10979;SDS011;5543;51.734;8.744;2023-04-24T01:02:24;0.10;;;0.10;;
10979;SDS011;5543;51.734;8.744;2023-04-24T01:04:53;0.00;;;0.00;;
10979;SDS011;5543;51.734;8.744;2023-04-24T01:07:21;0.20;;;0.20;;
10979;SDS011;5543;51.734;8.744;2023-04-24T01:09:49;0.00;;;0.00;;
10979;SDS011;5543;51.734;8.744;2023-04-24T01:12:21;0.10;;;0.10;;
10979;SDS011;5543;51.734;8.744;2023-04-24T01:14:49;0.35;;;0.30;;
10979;SDS011;5543;51.734;8.744;2023-04-24T01:17:18;0.08;;;0.08;;
10979;SDS011;5543;51.734;8.744;2023-04-24T01:19:46;0.20;;;0.20;;
10979;SDS011;5543;51.734;8.744;2023-04-24T01:22:16;0.10;;;0.10;;
10979;SDS011;5543;51.734;8.744;2023-04-24T01:24:44;0.17;;;0.17;;
10979;SDS011;5543;51.734;8.744;2023-04-24T01:27:12;0.20;;;0.20;;
10979;SDS011;5543;51.734;8.744;2023-04-24T01:29:40;0.10;;;0.10;;
10979;SDS011;5543;51.734;8.744;2023-04-24T01:32:09;0.08;;;0.08;;
10979;SDS011;5543;51.734;8.744;2023-04-24T01:34:37;0.03;;;0.03;;
10979;SDS011;5543;51.734;8.744;2023-04-24T01:37:06;0.20;;;0.20;;
10979;SDS011;5543;51.734;8.744;2023-04-24T01:39:35;0.10;;;0.10;;
10979;SDS011;5543;51.734;8.744;2023-04-24T01:42:04;0.20;;;0.20;;
10979;SDS011;5543;51.734;8.744;2023-04-24T01:44:33;0.10;;;0.10;;
10979;SDS011;5543;51.734;8.744;2023-04-24T01:47:01;0.20;;;0.20;;
10979;SDS011;5543;51.734;8.744;2023-04-24T01:49:29;0.10;;;0.10;;
10979;SDS011;5543;51.734;8.744;2023-04-24T01:51:57;0.10;;;0.10;;
10979;SDS011;5543;51.734;8.744;2023-04-24T01:54:25;0.00;;;0.00;;
10979;SDS011;5543;51.734;8.744;2023-04-24T01:56:55;0.05;;;0.05;;
10979;SDS011;5543;51.734;8.744;2023-04-24T01:59:23;0.10;;;0.10;;
10979;SDS011;5543;51.734;8.744;2023-04-24T02:01:52;0.10;;;0.10;;
10979;SDS011;5543;51.734;8.744;2023-04-24T02:04:20;0.10;;;0.10;;
10979;SDS011;5543;51.734;8.744;2023-04-24T02:06:49;0.13;;;0.13;;
10979;SDS011;5543;51.734;8.744;2023-04-24T02:09:17;0.10;;;0.10;;
10979;SDS011;5543;51.734;8.744;2023-04-24T02:11:45;0.20;;;0.20;;
10979;SDS011;5543;51.734;8.744;2023-04-24T02:14:15;0.20;;;0.20;;
10979;SDS011;5543;51.734;8.744;2023-04-24T02:16:43;0.17;;;0.17;;
10979;SDS011;5543;51.734;8.744;2023-04-24T02:19:11;0.17;;;0.17;;
10979;SDS011;5543;51.734;8.744;2023-04-24T02:21:39;0.13;;;0.13;;
10979;SDS011;5543;51.734;8.744;2023-04-24T02:24:07;0.20;;;0.20;;
10979;SDS011;5543;51.734;8.744;2023-04-24T02:26:35;0.20;;;0.20;;
10979;SDS011;5543;51.734;8.744;2023-04-24T02:29:03;0.13;;;0.10;;
10979;SDS011;5543;51.734;8.744;2023-04-24T02:31:33;0.20;;;0.20;;
10979;SDS011;5543;51.734;8.744;2023-04-24T02:34:01;0.08;;;0.08;;
10979;SDS011;5543;51.734;8.744;2023-04-24T02:36:29;0.28;;;0.28;;
10979;SDS011;5543;51.734;8.744;2023-04-24T02:38:57;0.20;;;0.20;;
10979;SDS011;5543;51.734;8.744;2023-04-24T02:41:25;0.20;;;0.20;;
10979;SDS011;5543;51.734;8.744;2023-04-24T02:43:57;0.20;;;0.20;;
10979;SDS011;5543;51.734;8.744;2023-04-24T02:46:26;0.03;;;0.03;;
10979;SDS011;5543;51.734;8.744;2023-04-24T02:48:55;0.10;;;0.10;;
10979;SDS011;5543;51.734;8.744;2023-04-24T02:51:23;0.00;;;0.00;;
10979;SDS011;5543;51.734;8.744;2023-04-24T02:53:51;0.10;;;0.10;;
10979;SDS011;5543;51.734;8.744;2023-04-24T02:56:20;0.10;;;0.10;;
10979;SDS011;5543;51.734;8.744;2023-04-24T02:58:48;0.00;;;0.00;;
10979;SDS011;5543;51.734;8.744;2023-04-24T03:01:16;0.10;;;0.10;;
10979;SDS011;5543;51.734;8.744;2023-04-24T03:03:44;0.13;;;0.10;;
10979;SDS011;5543;51.734;8.744;2023-04-24T03:06:14;0.00;;;0.00;;
10979;SDS011;5543;51.734;8.744;2023-04-24T03:08:42;0.10;;;0.10;;
10979;SDS011;5543;51.734;8.744;2023-04-24T03:11:10;0.10;;;0.10;;
10979;SDS011;5543;51.734;8.744;2023-04-24T03:13:38;0.28;;;0.28;;
10979;SDS011;5543;51.734;8.744;2023-04-24T03:16:07;0.25;;;0.10;;
10979;SDS011;5543;51.734;8.744;2023-04-24T03:18:35;0.10;;;0.10;;
10979;SDS011;5543;51.734;8.744;2023-04-24T03:21:03;0.10;;;0.10;;
10979;SDS011;5543;51.734;8.744;2023-04-24T03:23:32;0.30;;;0.30;;
10979;SDS011;5543;51.734;8.744;2023-04-24T03:26:01;0.10;;;0.10;;
10979;SDS011;5543;51.734;8.744;2023-04-24T03:28:29;0.10;;;0.10;;
10979;SDS011;5543;51.734;8.744;2023-04-24T03:30:57;0.10;;;0.10;;
10979;SDS011;5543;51.734;8.744;2023-04-24T03:33:25;0.45;;;0.40;;
10979;SDS011;5543;51.734;8.744;2023-04-24T03:35:53;0.10;;;0.10;;
10979;SDS011;5543;51.734;8.744;2023-04-24T03:38:21;0.10;;;0.10;;
10979;SDS011;5543;51.734;8.744;2023-04-24T03:40:50;0.25;;;0.25;;
10979;SDS011;5543;51.734;8.744;2023-04-24T03:43:18;0.13;;;0.13;;
10979;SDS011;5543;51.734;8.744;2023-04-24T03:45:46;0.00;;;0.00;;
10979;SDS011;5543;51.734;8.744;2023-04-24T03:48:15;0.13;;;0.13;;
10979;SDS011;5543;51.734;8.744;2023-04-24T03:50:43;0.10;;;0.10;;
10979;SDS011;5543;51.734;8.744;2023-04-24T03:53:11;0.10;;;0.10;;
10979;SDS011;5543;51.734;8.744;2023-04-24T03:55:39;0.10;;;0.10;;
10979;SDS011;5543;51.734;8.744;2023-04-24T03:58:09;0.10;;;0.10;;
10979;SDS011;5543;51.734;8.744;2023-04-24T04:00:37;0.20;;;0.20;;
10979;SDS011;5543;51.734;8.744;2023-04-24T04:03:06;0.00;;;0.00;;
10979;SDS011;5543;51.734;8.744;2023-04-24T04:05:35;0.10;;;0.10;;
10979;SDS011;5543;51.734;8.744;2023-04-24T04:08:03;0.10;;;0.10;;
10979;SDS011;5543;51.734;8.744;2023-04-24T04:10:31;0.10;;;0.10;;
10979;SDS011;5543;51.734;8.744;2023-04-24T04:12:59;0.05;;;0.05;;
10979;SDS011;5543;51.734;8.744;2023-04-24T04:15:28;0.10;;;0.10;;
10979;SDS011;5543;51.734;8.744;2023-04-24T04:17:57;0.40;;;0.40;;
10979;SDS011;5543;51.734;8.744;2023-04-24T04:20:25;0.17;;;0.17;;
10979;SDS011;5543;51.734;8.744;2023-04-24T04:22:53;0.10;;;0.10;;
10979;SDS011;5543;51.734;8.744;2023-04-24T04:25:21;0.30;;;0.30;;
10979;SDS011;5543;51.734;8.744;2023-04-24T04:27:49;0.20;;;0.20;;
10979;SDS011;5543;51.734;8.744;2023-04-24T04:30:18;0.47;;;0.47;;
10979;SDS011;5543;51.734;8.744;2023-04-24T04:32:48;0.20;;;0.20;;
10979;SDS011;5543;51.734;8.744;2023-04-24T04:35:17;0.60;;;0.60;;
10979;SDS011;5543;51.734;8.744;2023-04-24T04:37:48;0.20;;;0.20;;
10979;SDS011;5543;51.734;8.744;2023-04-24T04:40:17;0.20;;;0.20;;
10979;SDS011;5543;51.734;8.744;2023-04-24T04:42:45;0.28;;;0.28;;
10979;SDS011;5543;51.734;8.744;2023-04-24T04:45:13;0.85;;;0.40;;
10979;SDS011;5543;51.734;8.744;2023-04-24T04:47:43;0.35;;;0.35;;
10979;SDS011;5543;51.734;8.744;2023-04-24T04:50:13;0.40;;;0.40;;
10979;SDS011;5543;51.734;8.744;2023-04-24T04:52:42;0.38;;;0.38;;
10979;SDS011;5543;51.734;8.744;2023-04-24T04:55:11;0.28;;;0.28;;
10979;SDS011;5543;51.734;8.744;2023-04-24T04:57:39;0.40;;;0.38;;
10979;SDS011;5543;51.734;8.744;2023-04-24T05:00:08;0.52;;;0.40;;
10979;SDS011;5543;51.734;8.744;2023-04-24T05:02:38;0.40;;;0.40;;
10979;SDS011;5543;51.734;8.744;2023-04-24T05:05:07;0.25;;;0.20;;
10979;SDS011;5543;51.734;8.744;2023-04-24T05:07:37;0.28;;;0.28;;
10979;SDS011;5543;51.734;8.744;2023-04-24T05:10:05;0.52;;;0.52;;
10979;SDS011;5543;51.734;8.744;2023-04-24T05:12:34;0.80;;;0.80;;
10979;SDS011;5543;51.734;8.744;2023-04-24T05:15:02;0.63;;;0.60;;
10979;SDS011;5543;51.734;8.744;2023-04-24T05:17:33;0.60;;;0.60;;
10979;SDS011;5543;51.734;8.744;2023-04-24T05:20:01;0.45;;;0.45;;
10979;SDS011;5543;51.734;8.744;2023-04-24T05:22:31;0.63;;;0.63;;
10979;SDS011;5543;51.734;8.744;2023-04-24T05:25:01;0.40;;;0.40;;
10979;SDS011;5543;51.734;8.744;2023-04-24T05:27:29;0.95;;;0.95;;
10979;SDS011;5543;51.734;8.744;2023-04-24T05:29:57;0.77;;;0.77;;
10979;SDS011;5543;51.734;8.744;2023-04-24T05:32:25;0.93;;;0.88;;
10979;SDS011;5543;51.734;8.744;2023-04-24T05:34:54;0.80;;;0.75;;
10979;SDS011;5543;51.734;8.744;2023-04-24T05:37:22;1.20;;;1.10;;
10979;SDS011;5543;51.734;8.744;2023-04-24T05:39:50;0.65;;;0.65;;
10979;SDS011;5543;51.734;8.744;2023-04-24T05:42:20;1.60;;;1.42;;
10979;SDS011;5543;51.734;8.744;2023-04-24T05:44:48;0.85;;;0.82;;
10979;SDS011;5543;51.734;8.744;2023-04-24T05:47:20;1.00;;;0.75;;
10979;SDS011;5543;51.734;8.744;2023-04-24T05:49:48;1.02;;;1.00;;
10979;SDS011;5543;51.734;8.744;2023-04-24T05:52:17;1.10;;;1.05;;
10979;SDS011;5543;51.734;8.744;2023-04-24T05:54:45;1.02;;;0.93;;
10979;SDS011;5543;51.734;8.744;2023-04-24T05:57:13;1.40;;;1.30;;
10979;SDS011;5543;51.734;8.744;2023-04-24T05:59:42;0.55;;;0.55;;
10979;SDS011;5543;51.734;8.744;2023-04-24T06:02:11;1.23;;;1.00;;
10979;SDS011;5543;51.734;8.744;2023-04-24T06:04:39;1.00;;;1.00;;
10979;SDS011;5543;51.734;8.744;2023-04-24T06:07:10;1.60;;;1.40;;
10979;SDS011;5543;51.734;8.744;2023-04-24T06:09:38;0.75;;;0.75;;
10979;SDS011;5543;51.734;8.744;2023-04-24T06:12:06;1.35;;;1.17;;
10979;SDS011;5543;51.734;8.744;2023-04-24T06:14:38;0.90;;;0.90;;
10979;SDS011;5543;51.734;8.744;2023-04-24T06:17:07;1.05;;;0.98;;
10979;SDS011;5543;51.734;8.744;2023-04-24T06:19:35;1.60;;;1.50;;
10979;SDS011;5543;51.734;8.744;2023-04-24T06:22:04;2.05;;;1.55;;
10979;SDS011;5543;51.734;8.744;2023-04-24T06:24:34;1.08;;;0.98;;
10979;SDS011;5543;51.734;8.744;2023-04-24T06:27:03;1.38;;;1.27;;
10979;SDS011;5543;51.734;8.744;2023-04-24T06:29:31;1.15;;;1.05;;
10979;SDS011;5543;51.734;8.744;2023-04-24T06:32:00;1.38;;;1.27;;
10979;SDS011;5543;51.734;8.744;2023-04-24T06:34:30;2.10;;;1.08;;
10979;SDS011;5543;51.734;8.744;2023-04-24T06:36:58;1.75;;;1.30;;
10979;SDS011;5543;51.734;8.744;2023-04-24T06:39:27;1.30;;;1.20;;
10979;SDS011;5543;51.734;8.744;2023-04-24T06:41:55;1.73;;;1.45;;
10979;SDS011;5543;51.734;8.744;2023-04-24T06:44:23;1.58;;;1.48;;
10979;SDS011;5543;51.734;8.744;2023-04-24T06:46:51;1.20;;;1.10;;
10979;SDS011;5543;51.734;8.744;2023-04-24T06:49:19;1.35;;;1.25;;
10979;SDS011;5543;51.734;8.744;2023-04-24T06:51:49;1.40;;;1.27;;
10979;SDS011;5543;51.734;8.744;2023-04-24T06:54:17;2.65;;;1.20;;
10979;SDS011;5543;51.734;8.744;2023-04-24T06:56:45;3.50;;;0.80;;
10979;SDS011;5543;51.734;8.744;2023-04-24T06:59:15;0.70;;;0.70;;
10979;SDS011;5543;51.734;8.744;2023-04-24T07:01:43;1.05;;;1.00;;
10979;SDS011;5543;51.734;8.744;2023-04-24T07:04:11;0.82;;;0.82;;
10979;SDS011;5543;51.734;8.744;2023-04-24T07:06:39;0.85;;;0.85;;
10979;SDS011;5543;51.734;8.744;2023-04-24T07:09:09;1.10;;;1.00;;
10979;SDS011;5543;51.734;8.744;2023-04-24T07:11:37;0.90;;;0.80;;
10979;SDS011;5543;51.734;8.744;2023-04-24T07:14:06;1.23;;;1.13;;
10979;SDS011;5543;51.734;8.744;2023-04-24T07:16:35;0.95;;;0.95;;
10979;SDS011;5543;51.734;8.744;2023-04-24T07:19:03;0.88;;;0.88;;
10979;SDS011;5543;51.734;8.744;2023-04-24T07:21:31;1.10;;;1.02;;
10979;SDS011;5543;51.734;8.744;2023-04-24T07:23:59;0.80;;;0.80;;
10979;SDS011;5543;51.734;8.744;2023-04-24T07:26:29;0.65;;;0.65;;
10979;SDS011;5543;51.734;8.744;2023-04-24T07:28:58;0.70;;;0.70;;
10979;SDS011;5543;51.734;8.744;2023-04-24T07:31:26;0.80;;;0.80;;
10979;SDS011;5543;51.734;8.744;2023-04-24T07:33:54;0.90;;;0.90;;
10979;SDS011;5543;51.734;8.744;2023-04-24T07:36:24;0.70;;;0.70;;
10979;SDS011;5543;51.734;8.744;2023-04-24T07:38:52;0.68;;;0.68;;
10979;SDS011;5543;51.734;8.744;2023-04-24T07:41:27;0.98;;;0.98;;
10979;SDS011;5543;51.734;8.744;2023-04-24T07:43:56;1.10;;;1.00;;
10979;SDS011;5543;51.734;8.744;2023-04-24T07:46:25;1.02;;;0.88;;
10979;SDS011;5543;51.734;8.744;2023-04-24T07:48:56;0.63;;;0.63;;
10979;SDS011;5543;51.734;8.744;2023-04-24T07:51:39;0.65;;;0.65;;
10979;SDS011;5543;51.734;8.744;2023-04-24T07:54:08;0.50;;;0.50;;
10979;SDS011;5543;51.734;8.744;2023-04-24T07:56:36;1.13;;;0.98;;
10979;SDS011;5543;51.734;8.744;2023-04-24T07:59:07;1.17;;;1.10;;
10979;SDS011;5543;51.734;8.744;2023-04-24T08:01:36;0.70;;;0.70;;
10979;SDS011;5543;51.734;8.744;2023-04-24T08:04:04;0.80;;;0.80;;
10979;SDS011;5543;51.734;8.744;2023-04-24T08:06:33;0.68;;;0.65;;
10979;SDS011;5543;51.734;8.744;2023-04-24T08:09:01;0.60;;;0.60;;
10979;SDS011;5543;51.734;8.744;2023-04-24T08:11:30;0.77;;;0.77;;
10979;SDS011;5543;51.734;8.744;2023-04-24T08:13:59;0.60;;;0.57;;
10979;SDS011;5543;51.734;8.744;2023-04-24T08:16:28;0.65;;;0.57;;
10979;SDS011;5543;51.734;8.744;2023-04-24T08:18:57;0.40;;;0.40;;
10979;SDS011;5543;51.734;8.744;2023-04-24T08:21:25;0.30;;;0.30;;
10979;SDS011;5543;51.734;8.744;2023-04-24T08:23:53;0.75;;;0.75;;
10979;SDS011;5543;51.734;8.744;2023-04-24T08:26:21;0.50;;;0.50;;
10979;SDS011;5543;51.734;8.744;2023-04-24T08:28:49;0.40;;;0.40;;
10979;SDS011;5543;51.734;8.744;2023-04-24T08:31:17;0.98;;;0.70;;
10979;SDS011;5543;51.734;8.744;2023-04-24T08:33:47;0.52;;;0.52;;
10979;SDS011;5543;51.734;8.744;2023-04-24T08:36:15;0.45;;;0.45;;
10979;SDS011;5543;51.734;8.744;2023-04-24T08:38:43;2.22;;;0.95;;
10979;SDS011;5543;51.734;8.744;2023-04-24T08:41:12;0.47;;;0.47;;
10979;SDS011;5543;51.734;8.744;2023-04-24T08:43:42;0.47;;;0.47;;
10979;SDS011;5543;51.734;8.744;2023-04-24T08:46:13;0.52;;;0.52;;
10979;SDS011;5543;51.734;8.744;2023-04-24T08:48:42;0.50;;;0.50;;
10979;SDS011;5543;51.734;8.744;2023-04-24T08:51:12;0.40;;;0.40;;
10979;SDS011;5543;51.734;8.744;2023-04-24T08:53:41;0.85;;;0.80;;
10979;SDS011;5543;51.734;8.744;2023-04-24T08:56:10;0.60;;;0.60;;
10979;SDS011;5543;51.734;8.744;2023-04-24T08:58:39;0.50;;;0.50;;
10979;SDS011;5543;51.734;8.744;2023-04-24T09:01:08;0.30;;;0.30;;
10979;SDS011;5543;51.734;8.744;2023-04-24T09:03:37;0.43;;;0.43;;
10979;SDS011;5543;51.734;8.744;2023-04-24T09:06:06;0.40;;;0.40;;
10979;SDS011;5543;51.734;8.744;2023-04-24T09:08:38;0.73;;;0.73;;
10979;SDS011;5543;51.734;8.744;2023-04-24T09:11:08;0.40;;;0.40;;
10979;SDS011;5543;51.734;8.744;2023-04-24T09:13:37;0.55;;;0.55;;
10979;SDS011;5543;51.734;8.744;2023-04-24T09:16:05;0.35;;;0.35;;
10979;SDS011;5543;51.734;8.744;2023-04-24T09:18:34;0.20;;;0.20;;
10979;SDS011;5543;51.734;8.744;2023-04-24T09:21:02;0.50;;;0.50;;
10979;SDS011;5543;51.734;8.744;2023-04-24T09:23:34;0.35;;;0.35;;
10979;SDS011;5543;51.734;8.744;2023-04-24T09:26:04;0.55;;;0.55;;
10979;SDS011;5543;51.734;8.744;2023-04-24T09:28:32;0.32;;;0.32;;
10979;SDS011;5543;51.734;8.744;2023-04-24T09:31:04;0.77;;;0.43;;
10979;SDS011;5543;51.734;8.744;2023-04-24T09:33:35;0.40;;;0.40;;
10979;SDS011;5543;51.734;8.744;2023-04-24T09:36:04;0.55;;;0.43;;
10979;SDS011;5543;51.734;8.744;2023-04-24T09:38:34;0.20;;;0.20;;
10979;SDS011;5543;51.734;8.744;2023-04-24T09:41:05;0.17;;;0.17;;
10979;SDS011;5543;51.734;8.744;2023-04-24T09:43:35;0.15;;;0.15;;
10979;SDS011;5543;51.734;8.744;2023-04-24T09:46:06;0.30;;;0.30;;
10979;SDS011;5543;51.734;8.744;2023-04-24T09:48:36;0.10;;;0.10;;
10979;SDS011;5543;51.734;8.744;2023-04-24T09:51:06;0.22;;;0.22;;
10979;SDS011;5543;51.734;8.744;2023-04-24T09:53:37;0.20;;;0.20;;
10979;SDS011;5543;51.734;8.744;2023-04-24T09:56:08;0.30;;;0.30;;
10979;SDS011;5543;51.734;8.744;2023-04-24T09:58:38;0.20;;;0.20;;
10979;SDS011;5543;51.734;8.744;2023-04-24T10:01:07;0.20;;;0.20;;
10979;SDS011;5543;51.734;8.744;2023-04-24T10:03:35;0.10;;;0.10;;
10979;SDS011;5543;51.734;8.744;2023-04-24T10:06:03;0.10;;;0.10;;
10979;SDS011;5543;51.734;8.744;2023-04-24T10:08:35;0.10;;;0.10;;
10979;SDS011;5543;51.734;8.744;2023-04-24T10:11:04;0.13;;;0.13;;
10979;SDS011;5543;51.734;8.744;2023-04-24T10:13:35;0.08;;;0.08;;
10979;SDS011;5543;51.734;8.744;2023-04-24T10:16:03;0.10;;;0.10;;
10979;SDS011;5543;51.734;8.744;2023-04-24T10:18:32;0.20;;;0.20;;
10979;SDS011;5543;51.734;8.744;2023-04-24T10:21:02;0.47;;;0.47;;
10979;SDS011;5543;51.734;8.744;2023-04-24T10:23:30;0.10;;;0.10;;
10979;SDS011;5543;51.734;8.744;2023-04-24T10:25:59;0.10;;;0.10;;
10979;SDS011;5543;51.734;8.744;2023-04-24T10:28:28;0.10;;;0.10;;
10979;SDS011;5543;51.734;8.744;2023-04-24T10:30:59;0.10;;;0.10;;
10979;SDS011;5543;51.734;8.744;2023-04-24T10:33:28;0.10;;;0.10;;
10979;SDS011;5543;51.734;8.744;2023-04-24T10:35:57;0.10;;;0.10;;
10979;SDS011;5543;51.734;8.744;2023-04-24T10:38:26;0.10;;;0.10;;
10979;SDS011;5543;51.734;8.744;2023-04-24T10:41:06;0.10;;;0.10;;
10979;SDS011;5543;51.734;8.744;2023-04-24T10:43:35;0.00;;;0.00;;
10979;SDS011;5543;51.734;8.744;2023-04-24T10:46:05;0.10;;;0.10;;
10979;SDS011;5543;51.734;8.744;2023-04-24T10:48:34;0.00;;;0.00;;
10979;SDS011;5543;51.734;8.744;2023-04-24T10:51:03;0.00;;;0.00;;
10979;SDS011;5543;51.734;8.744;2023-04-24T10:53:31;0.10;;;0.10;;
10979;SDS011;5543;51.734;8.744;2023-04-24T10:56:03;0.10;;;0.10;;
10979;SDS011;5543;51.734;8.744;2023-04-24T10:58:36;0.20;;;0.20;;
10979;SDS011;5543;51.734;8.744;2023-04-24T11:01:07;0.10;;;0.10;;
10979;SDS011;5543;51.734;8.744;2023-04-24T11:03:36;0.00;;;0.00;;
10979;SDS011;5543;51.734;8.744;2023-04-24T11:06:08;0.20;;;0.20;;
10979;SDS011;5543;51.734;8.744;2023-04-24T11:08:37;0.10;;;0.10;;
10979;SDS011;5543;51.734;8.744;2023-04-24T11:11:10;0.00;;;0.00;;
10979;SDS011;5543;51.734;8.744;2023-04-24T11:16:32;0.10;;;0.10;;
10979;SDS011;5543;51.734;8.744;2023-04-24T11:19:03;0.10;;;0.10;;
10979;SDS011;5543;51.734;8.744;2023-04-24T11:21:40;0.10;;;0.10;;
10979;SDS011;5543;51.734;8.744;2023-04-24T11:27:17;0.20;;;0.20;;
10979;SDS011;5543;51.734;8.744;2023-04-24T11:29:47;0.20;;;0.20;;
10979;SDS011;5543;51.734;8.744;2023-04-24T11:32:25;0.10;;;0.10;;
10979;SDS011;5543;51.734;8.744;2023-04-24T11:34:55;0.03;;;0.03;;
10979;SDS011;5543;51.734;8.744;2023-04-24T11:37:25;0.15;;;0.15;;
10979;SDS011;5543;51.734;8.744;2023-04-24T11:39:57;0.15;;;0.15;;
10979;SDS011;5543;51.734;8.744;2023-04-24T11:42:27;0.20;;;0.20;;
10979;SDS011;5543;51.734;8.744;2023-04-24T11:44:56;0.40;;;0.40;;
10979;SDS011;5543;51.734;8.744;2023-04-24T11:47:31;0.13;;;0.13;;
10979;SDS011;5543;51.734;8.744;2023-04-24T11:50:00;0.22;;;0.22;;
10979;SDS011;5543;51.734;8.744;2023-04-24T11:52:30;0.22;;;0.22;;
10979;SDS011;5543;51.734;8.744;2023-04-24T11:54:59;0.20;;;0.20;;
10979;SDS011;5543;51.734;8.744;2023-04-24T11:57:27;0.30;;;0.30;;
10979;SDS011;5543;51.734;8.744;2023-04-24T12:00:00;0.35;;;0.35;;
10979;SDS011;5543;51.734;8.744;2023-04-24T12:02:32;0.35;;;0.35;;
10979;SDS011;5543;51.734;8.744;2023-04-24T12:05:02;0.30;;;0.30;;
10979;SDS011;5543;51.734;8.744;2023-04-24T12:07:31;0.20;;;0.20;;
10979;SDS011;5543;51.734;8.744;2023-04-24T12:10:09;0.20;;;0.20;;
10979;SDS011;5543;51.734;8.744;2023-04-24T12:12:37;0.20;;;0.20;;
10979;SDS011;5543;51.734;8.744;2023-04-24T12:15:06;1.55;;;0.65;;
10979;SDS011;5543;51.734;8.744;2023-04-24T12:17:37;0.38;;;0.38;;
10979;SDS011;5543;51.734;8.744;2023-04-24T12:20:09;0.35;;;0.35;;
10979;SDS011;5543;51.734;8.744;2023-04-24T12:22:44;0.20;;;0.20;;
10979;SDS011;5543;51.734;8.744;2023-04-24T12:25:14;0.30;;;0.30;;
10979;SDS011;5543;51.734;8.744;2023-04-24T12:27:43;0.43;;;0.32;;
10979;SDS011;5543;51.734;8.744;2023-04-24T12:30:12;0.20;;;0.20;;
10979;SDS011;5543;51.734;8.744;2023-04-24T12:32:43;0.20;;;0.20;;
10979;SDS011;5543;51.734;8.744;2023-04-24T12:35:13;0.50;;;0.47;;
10979;SDS011;5543;51.734;8.744;2023-04-24T12:37:46;0.55;;;0.50;;
10979;SDS011;5543;51.734;8.744;2023-04-24T12:40:14;0.30;;;0.30;;
10979;SDS011;5543;51.734;8.744;2023-04-24T12:42:43;0.45;;;0.45;;
10979;SDS011;5543;51.734;8.744;2023-04-24T12:45:13;0.22;;;0.22;;
10979;SDS011;5543;51.734;8.744;2023-04-24T12:47:44;0.38;;;0.38;;
10979;SDS011;5543;51.734;8.744;2023-04-24T12:50:13;1.23;;;1.13;;
10979;SDS011;5543;51.734;8.744;2023-04-24T12:52:43;0.40;;;0.40;;
10979;SDS011;5543;51.734;8.744;2023-04-24T12:55:11;0.38;;;0.38;;
10979;SDS011;5543;51.734;8.744;2023-04-24T12:57:40;0.30;;;0.30;;
10979;SDS011;5543;51.734;8.744;2023-04-24T13:00:08;0.40;;;0.40;;
10979;SDS011;5543;51.734;8.744;2023-04-24T13:02:37;0.30;;;0.30;;
10979;SDS011;5543;51.734;8.744;2023-04-24T13:05:07;0.40;;;0.40;;
10979;SDS011;5543;51.734;8.744;2023-04-24T13:07:37;0.47;;;0.47;;
10979;SDS011;5543;51.734;8.744;2023-04-24T13:10:06;0.82;;;0.82;;
10979;SDS011;5543;51.734;8.744;2023-04-24T13:12:35;0.77;;;0.77;;
10979;SDS011;5543;51.734;8.744;2023-04-24T13:15:05;0.68;;;0.68;;
10979;SDS011;5543;51.734;8.744;2023-04-24T13:17:34;0.45;;;0.45;;
10979;SDS011;5543;51.734;8.744;2023-04-24T13:20:02;0.70;;;0.70;;
10979;SDS011;5543;51.734;8.744;2023-04-24T13:22:33;0.93;;;0.68;;
10979;SDS011;5543;51.734;8.744;2023-04-24T13:25:01;0.80;;;0.80;;
10979;SDS011;5543;51.734;8.744;2023-04-24T13:27:29;0.50;;;0.50;;
10979;SDS011;5543;51.734;8.744;2023-04-24T13:29:58;1.00;;;0.80;;
10979;SDS011;5543;51.734;8.744;2023-04-24T13:32:26;1.35;;;0.60;;
10979;SDS011;5543;51.734;8.744;2023-04-24T13:34:55;1.25;;;0.90;;
10979;SDS011;5543;51.734;8.744;2023-04-24T13:37:24;0.57;;;0.57;;
10979;SDS011;5543;51.734;8.744;2023-04-24T13:39:53;1.05;;;0.90;;
10979;SDS011;5543;51.734;8.744;2023-04-24T13:42:21;0.65;;;0.65;;
10979;SDS011;5543;51.734;8.744;2023-04-24T13:44:50;0.57;;;0.57;;
10979;SDS011;5543;51.734;8.744;2023-04-24T13:47:18;0.68;;;0.68;;
10979;SDS011;5543;51.734;8.744;2023-04-24T13:49:46;0.98;;;0.98;;
10979;SDS011;5543;51.734;8.744;2023-04-24T13:52:14;0.40;;;0.40;;
10979;SDS011;5543;51.734;8.744;2023-04-24T13:54:43;0.60;;;0.60;;
10979;SDS011;5543;51.734;8.744;2023-04-24T13:57:13;1.02;;;0.73;;
10979;SDS011;5543;51.734;8.744;2023-04-24T13:59:42;0.55;;;0.55;;
10979;SDS011;5543;51.734;8.744;2023-04-24T14:02:11;1.27;;;1.17;;
10979;SDS011;5543;51.734;8.744;2023-04-24T14:04:39;0.95;;;0.82;;
10979;SDS011;5543;51.734;8.744;2023-04-24T14:07:08;0.75;;;0.75;;
10979;SDS011;5543;51.734;8.744;2023-04-24T14:09:36;0.95;;;0.95;;
10979;SDS011;5543;51.734;8.744;2023-04-24T14:12:05;1.63;;;0.90;;
10979;SDS011;5543;51.734;8.744;2023-04-24T14:14:34;0.82;;;0.82;;
10979;SDS011;5543;51.734;8.744;2023-04-24T14:17:02;0.98;;;0.88;;
10979;SDS011;5543;51.734;8.744;2023-04-24T14:19:31;1.33;;;1.23;;
10979;SDS011;5543;51.734;8.744;2023-04-24T14:22:00;0.80;;;0.80;;
10979;SDS011;5543;51.734;8.744;2023-04-24T14:24:28;1.30;;;1.15;;
10979;SDS011;5543;51.734;8.744;2023-04-24T14:26:57;1.50;;;1.15;;
10979;SDS011;5543;51.734;8.744;2023-04-24T14:29:25;1.13;;;1.02;;
10979;SDS011;5543;51.734;8.744;2023-04-24T14:31:55;3.22;;;1.48;;
10979;SDS011;5543;51.734;8.744;2023-04-24T14:34:23;1.02;;;1.02;;
10979;SDS011;5543;51.734;8.744;2023-04-24T14:36:51;0.75;;;0.68;;
10979;SDS011;5543;51.734;8.744;2023-04-24T14:39:20;0.90;;;0.90;;
10979;SDS011;5543;51.734;8.744;2023-04-24T14:41:49;0.80;;;0.80;;
10979;SDS011;5543;51.734;8.744;2023-04-24T14:44:17;2.55;;;1.98;;
10979;SDS011;5543;51.734;8.744;2023-04-24T14:46:45;2.20;;;0.80;;
10979;SDS011;5543;51.734;8.744;2023-04-24T14:49:15;1.05;;;0.98;;
10979;SDS011;5543;51.734;8.744;2023-04-24T14:51:43;0.98;;;0.98;;
10979;SDS011;5543;51.734;8.744;2023-04-24T14:54:12;1.00;;;0.82;;
10979;SDS011;5543;51.734;8.744;2023-04-24T14:56:40;1.00;;;0.88;;
10979;SDS011;5543;51.734;8.744;2023-04-24T14:59:10;0.68;;;0.68;;
10979;SDS011;5543;51.734;8.744;2023-04-24T15:01:38;0.73;;;0.65;;
10979;SDS011;5543;51.734;8.744;2023-04-24T15:04:07;0.47;;;0.47;;
10979;SDS011;5543;51.734;8.744;2023-04-24T15:06:36;0.60;;;0.60;;
10979;SDS011;5543;51.734;8.744;2023-04-24T15:09:05;0.65;;;0.65;;
10979;SDS011;5543;51.734;8.744;2023-04-24T15:11:33;0.70;;;0.70;;
10979;SDS011;5543;51.734;8.744;2023-04-24T15:14:01;0.93;;;0.88;;
10979;SDS011;5543;51.734;8.744;2023-04-24T15:16:30;2.33;;;1.45;;